Accueil
METAR-TAF:

METAR-TAF

Aéroports :

Aérodrome d'Inhambane

Inhambane, Mozambique

latitude: 23-52S, longitude: 035-23E, altitude: 14 m

Observation

Le bulletin a été fait il y a 59 minutes, à 09:00 UTC
Vent 5 kt de sud
Température 25°C
Humidité 69%
Pression 1022 hPa
Visibilité 10 km ou plus
Quelques nuages à une hauteur de 2000 ft
Quelques nuages à une hauteur de 3000 ft

METAR: FQIN 300900Z 19005KT 9999 FEW020 FEW030 25/19 Q1022 NOSIG

Heure: 11:59 (09:59 UTC)

Prévision

Le bulletin a été fait il y a 5 heures et 59 minutes, à 04:00 UTC
Prévision valable du 30 à 06 UTC au 31 à 06 UTC
Vent 3 kt de direction variable
Visibilité 10 km ou plus
pas de nuages en-dessous de 1500 mètres et pas de cumulonimbus.
Evoluant progressivement
du 30 à 12 UTC au 30 à 14 UTC
Vent 12 kt de est/sud-est

TAF: FQIN 300400Z 3006/3106 VRB03KT CAVOK TX29/3013Z TN19/3103Z BECMG 3012/3014 11012KT

Observations et prévisions météorologiques de plus de 4000 aéroports (messages METAR et TAF).

Les stations disponibles sont représentées par des disques jaunes et rouges sur la carte.

Passer la souris dessus pour voir le nom de la station.

Cliquer dessus pour voir les observations et prévisions météorologiques.

Pour changer de carte: cliquez sur les boutons verts avec une croix noire pour zoomer, sur le bouton vert avec un tiret pour effectuer un zoom arrière, ou sur les flèches vertes pour les cartes adjacentes.


METAR-TAF: